createdAt,value
2022-09-28T00:00:01.664Z,90.30
2022-09-28T00:02:31.015Z,90.40
2022-09-28T00:04:57.789Z,90.30
2022-09-28T00:07:36.701Z,90.30
2022-09-28T00:10:03.308Z,90.30
2022-09-28T00:12:30.886Z,90.40
2022-09-28T00:15:04.954Z,90.60
2022-09-28T00:17:53.464Z,90.50
2022-09-28T00:20:32.558Z,90.50
2022-09-28T00:22:59.088Z,90.60
2022-09-28T00:25:38.683Z,90.70
2022-09-28T00:28:18.365Z,90.70
2022-09-28T00:30:44.921Z,90.70
2022-09-28T00:40:25.440Z,90.60
2022-09-28T00:43:12.847Z,90.60
2022-09-28T00:45:39.428Z,90.60
2022-09-28T00:48:06.026Z,90.70
2022-09-28T00:53:56.120Z,90.70
2022-09-28T00:56:32.213Z,90.70
2022-09-28T00:59:32.376Z,90.70
2022-09-28T01:01:58.965Z,90.70
2022-09-28T01:04:29.276Z,90.80
2022-09-28T01:07:18.465Z,90.80
2022-09-28T01:09:45.860Z,90.80
2022-09-28T01:12:12.411Z,91.20
2022-09-28T01:18:44.210Z,91.30
2022-09-28T01:21:32.414Z,91.50
2022-09-28T01:24:21.750Z,91.70
2022-09-28T01:26:48.251Z,91.60
2022-09-28T01:29:31.890Z,91.40
2022-09-28T01:32:24.902Z,91.40
2022-09-28T01:39:04.270Z,91.40
2022-09-28T01:41:32.832Z,91.20
2022-09-28T01:47:31.197Z,91.10
2022-09-28T01:50:04.946Z,90.90
2022-09-28T01:53:04.385Z,91.10
2022-09-28T01:55:39.632Z,91.00
2022-09-28T01:58:28.929Z,90.80
2022-09-28T02:01:00.668Z,91.00
2022-09-28T02:03:34.732Z,90.90
2022-09-28T02:06:05.670Z,91.00
2022-09-28T02:09:09.703Z,91.00
2022-09-28T02:11:37.928Z,91.10
2022-09-28T02:14:05.673Z,91.20
2022-09-28T02:16:35.744Z,91.30
2022-09-28T02:19:06.497Z,91.30
2022-09-28T02:21:40.038Z,91.40
2022-09-28T02:24:17.155Z,91.50
2022-09-28T02:26:47.940Z,91.40
2022-09-28T02:32:45.003Z,91.60
2022-09-28T02:35:12.632Z,91.60
2022-09-28T02:37:39.712Z,91.80
2022-09-28T02:40:17.758Z,91.60
2022-09-28T02:42:49.220Z,91.40
2022-09-28T02:45:23.170Z,91.30
2022-09-28T02:48:04.617Z,91.30
2022-09-28T02:50:43.187Z,91.30
2022-09-28T02:53:09.715Z,91.50
2022-09-28T02:55:42.445Z,91.60
2022-09-28T02:58:27.762Z,91.70
2022-09-28T03:01:03.179Z,91.50
2022-09-28T03:03:37.674Z,91.60
2022-09-28T03:06:38.588Z,91.70
2022-09-28T03:09:20.344Z,91.70
2022-09-28T03:11:49.185Z,91.80
2022-09-28T03:14:16.253Z,91.80
2022-09-28T03:16:43.334Z,91.70
2022-09-28T03:19:11.276Z,91.70
2022-09-28T03:21:49.970Z,91.60
2022-09-28T03:24:17.580Z,91.70
2022-09-28T03:26:44.238Z,91.80
2022-09-28T03:29:10.886Z,91.70
2022-09-28T03:31:37.912Z,91.80
2022-09-28T03:34:04.458Z,91.80
2022-09-28T03:36:31.002Z,91.90
2022-09-28T03:38:57.728Z,91.80
2022-09-28T03:41:24.317Z,91.60
2022-09-28T03:43:53.103Z,91.60
2022-09-28T03:46:19.832Z,91.60
2022-09-28T03:48:46.603Z,91.80
2022-09-28T03:51:20.191Z,91.80
2022-09-28T03:53:46.793Z,91.70
2022-09-28T03:56:14.910Z,91.80
2022-09-28T03:58:50.447Z,91.90
2022-09-28T04:01:18.199Z,92.00
2022-09-28T04:03:45.289Z,91.90
2022-09-28T04:06:33.912Z,92.00
2022-09-28T04:09:00.550Z,92.10
2022-09-28T04:11:59.423Z,91.90
2022-09-28T04:14:26.188Z,91.90
2022-09-28T04:16:57.867Z,91.80
2022-09-28T04:19:35.784Z,91.70
2022-09-28T04:22:11.812Z,91.90
2022-09-28T04:24:39.022Z,91.90
2022-09-28T04:27:24.491Z,91.90
2022-09-28T04:30:10.644Z,91.90
2022-09-28T04:32:41.906Z,91.80
2022-09-28T04:35:09.490Z,92.00
2022-09-28T04:37:38.158Z,92.10
2022-09-28T04:40:06.310Z,92.00
2022-09-28T04:42:33.035Z,92.10
2022-09-28T04:45:00.928Z,92.00
2022-09-28T04:47:29.520Z,91.90
2022-09-28T04:49:56.275Z,92.00
2022-09-28T04:52:32.780Z,92.00
2022-09-28T04:54:59.290Z,92.20
2022-09-28T04:57:30.926Z,92.20
2022-09-28T05:03:21.234Z,92.30
2022-09-28T05:05:48.932Z,92.20
2022-09-28T05:08:15.952Z,92.30
2022-09-28T05:10:42.729Z,92.30
2022-09-28T05:13:10.086Z,92.50
2022-09-28T05:15:37.180Z,92.60
2022-09-28T05:18:03.942Z,92.60
2022-09-28T05:20:56.134Z,92.60
2022-09-28T05:23:22.799Z,92.50
2022-09-28T05:29:18.090Z,92.60
2022-09-28T05:31:44.896Z,92.70
2022-09-28T05:37:49.406Z,92.50
2022-09-28T05:43:45.614Z,92.40
2022-09-28T05:49:33.858Z,92.50
2022-09-28T05:52:00.485Z,92.50
2022-09-28T05:54:42.452Z,92.50
2022-09-28T05:57:09.101Z,92.50
2022-09-28T05:59:36.231Z,92.20
2022-09-28T06:02:03.262Z,92.10
2022-09-28T06:07:59.313Z,92.00
2022-09-28T06:10:26.714Z,92.10
2022-09-28T06:12:54.239Z,92.40
2022-09-28T06:22:17.115Z,92.30
2022-09-28T06:24:43.698Z,92.30
2022-09-28T06:27:10.243Z,92.20
2022-09-28T06:29:36.798Z,92.10
2022-09-28T06:32:03.516Z,91.60
2022-09-28T06:34:30.184Z,91.50
2022-09-28T06:36:56.882Z,91.90
2022-09-28T06:39:23.456Z,91.90
2022-09-28T06:45:21.760Z,91.90
2022-09-28T06:47:52.379Z,91.50
2022-09-28T06:50:19.399Z,91.40
2022-09-28T06:52:45.947Z,91.10
2022-09-28T06:58:41.182Z,91.00
2022-09-28T07:01:07.842Z,90.50
2022-09-28T07:03:34.458Z,90.60
2022-09-28T07:06:01.379Z,90.70
2022-09-28T07:08:29.330Z,90.70
2022-09-28T07:10:56.390Z,90.50
2022-09-28T07:14:02.180Z,90.10
2022-09-28T07:17:14.016Z,90.40
2022-09-28T07:23:18.362Z,90.50
2022-09-28T07:25:47.797Z,90.50
2022-09-28T07:28:14.817Z,90.20
2022-09-28T07:34:11.709Z,89.70
2022-09-28T07:36:39.088Z,89.70
2022-09-28T07:39:05.677Z,89.20
2022-09-28T07:48:38.048Z,89.00
2022-09-28T07:51:04.880Z,89.30
2022-09-28T07:57:00.128Z,89.30
2022-09-28T08:02:55.080Z,88.80
2022-09-28T08:08:50.349Z,88.40
2022-09-28T08:11:17.965Z,88.00
2022-09-28T08:17:07.208Z,87.80
2022-09-28T08:22:56.864Z,87.60
2022-09-28T08:28:46.721Z,86.20
2022-09-28T08:31:13.329Z,86.90
2022-09-28T08:33:40.123Z,87.00
2022-09-28T08:36:06.919Z,87.00
2022-09-28T08:42:15.777Z,86.70
2022-09-28T08:44:44.596Z,86.10
2022-09-28T08:47:49.422Z,85.70
2022-09-28T08:50:18.198Z,85.90
2022-09-28T08:52:47.360Z,85.90
2022-09-28T08:58:44.438Z,86.10
2022-09-28T09:01:16.447Z,86.50
2022-09-28T09:03:45.225Z,86.30
2022-09-28T09:06:20.577Z,86.30
2022-09-28T09:09:06.019Z,85.80
2022-09-28T09:15:06.165Z,86.40
2022-09-28T09:21:06.214Z,86.00
2022-09-28T09:23:55.854Z,86.10
2022-09-28T09:26:51.738Z,86.00
2022-09-28T09:29:36.824Z,84.80
2022-09-28T09:35:40.600Z,85.90
2022-09-28T09:41:38.187Z,86.00
2022-09-28T09:44:19.998Z,85.70
2022-09-28T09:46:54.219Z,85.70
2022-09-28T09:53:27.059Z,85.70
2022-09-28T09:55:57.321Z,84.70
2022-09-28T09:58:26.837Z,83.90
2022-09-28T10:00:55.148Z,83.30
2022-09-28T10:03:21.774Z,83.30
2022-09-28T10:06:18.159Z,82.10
2022-09-28T10:15:35.340Z,83.40
2022-09-28T10:21:43.394Z,83.70
2022-09-28T10:24:17.142Z,84.50
2022-09-28T10:26:46.627Z,83.60
2022-09-28T10:29:20.179Z,81.60
2022-09-28T10:35:18.569Z,81.20
2022-09-28T10:41:13.701Z,82.70
2022-09-28T10:44:10.817Z,81.10
2022-09-28T10:46:38.590Z,82.90
2022-09-28T10:52:54.050Z,82.70
2022-09-28T10:55:20.544Z,80.30
2022-09-28T10:57:49.359Z,79.40
2022-09-28T11:00:34.438Z,79.40
2022-09-28T11:03:02.027Z,80.90
2022-09-28T11:05:28.867Z,80.40
2022-09-28T11:07:56.993Z,82.00
2022-09-28T11:10:32.793Z,82.70
2022-09-28T11:13:21.430Z,82.00
2022-09-28T11:15:48.282Z,80.30
2022-09-28T11:18:40.619Z,81.40
2022-09-28T11:25:11.974Z,80.80
2022-09-28T11:31:24.575Z,81.10
2022-09-28T11:33:51.418Z,80.70
2022-09-28T11:36:23.822Z,81.00
2022-09-28T11:42:46.644Z,80.70
2022-09-28T11:45:36.287Z,82.30
2022-09-28T11:48:05.127Z,82.20
2022-09-28T11:50:47.246Z,82.10
2022-09-28T11:53:20.490Z,81.80
2022-09-28T11:56:16.252Z,81.90
2022-09-28T11:58:45.832Z,81.90
2022-09-28T12:01:22.061Z,78.60
2022-09-28T12:03:51.816Z,80.80
2022-09-28T12:06:19.676Z,80.10
2022-09-28T12:08:48.994Z,80.60
2022-09-28T12:14:45.457Z,79.80
2022-09-28T12:17:20.088Z,78.10
2022-09-28T12:19:56.706Z,79.10
2022-09-28T12:22:25.342Z,78.00
2022-09-28T12:24:54.369Z,79.30
2022-09-28T12:27:26.905Z,79.30
2022-09-28T12:29:58.488Z,78.70
2022-09-28T12:32:45.387Z,77.80
2022-09-28T12:35:42.372Z,77.60
2022-09-28T12:38:17.086Z,77.10
2022-09-28T12:44:41.740Z,78.10
2022-09-28T12:47:09.676Z,76.90
2022-09-28T12:52:52.968Z,76.80
2022-09-28T12:56:02.503Z,76.20
2022-09-28T12:58:36.666Z,75.20
2022-09-28T13:01:26.746Z,72.50
2022-09-28T13:07:24.825Z,77.10
2022-09-28T13:10:13.960Z,77.60
2022-09-28T13:13:10.953Z,77.20
2022-09-28T13:16:07.675Z,77.60
2022-09-28T13:18:59.833Z,75.50
2022-09-28T13:21:28.403Z,77.50
2022-09-28T13:24:08.764Z,76.60
2022-09-28T13:27:21.573Z,78.30
2022-09-28T13:33:45.635Z,77.80
2022-09-28T13:36:47.195Z,78.90
2022-09-28T13:39:34.986Z,75.50
2022-09-28T13:42:02.638Z,77.50
2022-09-28T13:51:55.384Z,77.00
2022-09-28T13:54:41.646Z,77.60
2022-09-28T13:57:46.070Z,78.20
2022-09-28T14:04:06.833Z,77.70
2022-09-28T14:06:33.455Z,78.10
2022-09-28T14:09:19.930Z,78.60
2022-09-28T14:11:56.230Z,77.20
2022-09-28T14:14:25.856Z,78.70
2022-09-28T14:16:59.976Z,77.40
2022-09-28T14:19:31.628Z,78.70
2022-09-28T14:22:10.475Z,77.30
2022-09-28T14:25:15.306Z,80.00
2022-09-28T14:27:51.311Z,79.90
2022-09-28T14:30:17.996Z,80.70
2022-09-28T14:32:50.648Z,78.50
2022-09-28T14:35:56.529Z,78.60
2022-09-28T14:39:00.382Z,79.40
2022-09-28T14:41:29.688Z,79.90
2022-09-28T14:44:02.651Z,80.50
2022-09-28T14:46:35.447Z,81.00
2022-09-28T14:49:06.096Z,81.30
2022-09-28T14:52:04.721Z,79.40
2022-09-28T14:55:04.478Z,80.30
2022-09-28T14:57:31.178Z,80.60
2022-09-28T14:59:59.639Z,80.20
2022-09-28T15:03:01.583Z,79.80
2022-09-28T15:08:51.664Z,81.30
2022-09-28T15:11:20.989Z,81.00
2022-09-28T15:13:49.908Z,81.30
2022-09-28T15:16:17.421Z,82.00
2022-09-28T15:19:18.727Z,82.00
2022-09-28T15:21:58.921Z,81.80
2022-09-28T15:24:58.718Z,81.20
2022-09-28T15:27:57.732Z,81.00
2022-09-28T15:44:39.825Z,81.60
2022-09-28T15:47:26.336Z,82.50
2022-09-28T15:50:09.225Z,83.10
2022-09-28T15:52:40.030Z,83.50
2022-09-28T15:55:20.772Z,83.30
2022-09-28T16:08:26.691Z,84.00
2022-09-28T16:10:55.869Z,83.40
2022-09-28T16:13:24.258Z,83.80
2022-09-28T16:15:57.778Z,83.00
2022-09-28T16:18:25.533Z,82.60
2022-09-28T16:20:53.191Z,82.50
2022-09-28T16:23:31.012Z,82.90
2022-09-28T16:26:11.824Z,83.20
2022-09-28T16:28:48.761Z,83.90
2022-09-28T16:31:34.302Z,84.00
2022-09-28T16:34:16.621Z,84.10
2022-09-28T16:36:52.494Z,84.20
2022-09-28T16:39:19.733Z,84.40
2022-09-28T16:41:48.564Z,84.80
2022-09-28T16:48:01.602Z,85.20
2022-09-28T16:54:32.678Z,85.40
2022-09-28T16:57:10.535Z,85.70
2022-09-28T16:59:47.220Z,85.90
2022-09-28T17:05:15.923Z,86.20
2022-09-28T17:07:44.006Z,86.60
2022-09-28T17:10:30.848Z,86.70
2022-09-28T17:13:12.234Z,86.80
2022-09-28T17:16:10.388Z,86.90
2022-09-28T17:22:19.540Z,86.90
2022-09-28T17:35:24.049Z,87.30
2022-09-28T17:38:01.987Z,87.60
2022-09-28T17:40:53.679Z,87.60
2022-09-28T17:46:49.790Z,87.80
2022-09-28T17:49:16.858Z,87.80
2022-09-28T17:52:15.517Z,87.60
2022-09-28T17:55:23.099Z,87.70
2022-09-28T18:04:51.930Z,88.10
2022-09-28T18:07:19.127Z,88.00
2022-09-28T18:09:45.753Z,88.10
2022-09-28T18:15:43.481Z,88.20
2022-09-28T18:18:10.358Z,88.10
2022-09-28T18:27:34.987Z,88.30
2022-09-28T18:30:01.736Z,88.60
2022-09-28T18:32:28.313Z,88.70
2022-09-28T18:35:12.366Z,88.60
2022-09-28T18:44:41.651Z,89.10
2022-09-28T18:47:08.207Z,89.10
2022-09-28T18:49:58.806Z,89.00
2022-09-28T18:59:15.875Z,89.50
2022-09-28T19:01:43.180Z,89.40
2022-09-28T19:14:28.592Z,89.50
2022-09-28T19:20:23.381Z,89.50
2022-09-28T19:22:50.577Z,89.50
2022-09-28T19:28:45.494Z,89.60
2022-09-28T19:31:12.471Z,89.60
2022-09-28T19:33:39.774Z,89.60
2022-09-28T19:36:09.888Z,89.70
2022-09-28T19:38:37.454Z,89.70
2022-09-28T19:41:11.469Z,89.70
2022-09-28T19:47:11.275Z,89.70
2022-09-28T19:53:07.377Z,89.70
2022-09-28T19:55:37.202Z,89.60
2022-09-28T20:01:33.147Z,89.20
2022-09-28T20:04:00.428Z,89.50
2022-09-28T20:06:27.473Z,89.40
2022-09-28T20:12:23.178Z,89.40
2022-09-28T20:18:12.306Z,89.70
2022-09-28T20:20:39.264Z,89.50
2022-09-28T20:23:05.901Z,89.60
2022-09-28T20:25:32.539Z,89.90
2022-09-28T20:27:59.101Z,89.90
2022-09-28T20:33:54.381Z,90.10
2022-09-28T20:36:21.998Z,90.10
2022-09-28T20:38:49.419Z,90.30
2022-09-28T20:41:18.050Z,90.30
2022-09-28T20:43:46.596Z,90.30
2022-09-28T20:49:41.556Z,90.30
2022-09-28T20:52:08.195Z,90.00
2022-09-28T20:54:34.766Z,90.00
2022-09-28T21:03:58.821Z,90.10
2022-09-28T21:09:53.677Z,90.20
2022-09-28T21:15:51.725Z,90.50
2022-09-28T21:21:46.990Z,90.40
2022-09-28T21:24:13.579Z,90.40
2022-09-28T21:26:40.169Z,90.40
2022-09-28T21:29:10.188Z,90.50
2022-09-28T21:34:58.482Z,90.20
2022-09-28T21:40:54.868Z,89.80
2022-09-28T21:46:49.598Z,89.60
2022-09-28T21:52:44.872Z,89.50
2022-09-28T21:55:11.454Z,89.30
2022-09-28T22:01:16.498Z,89.30
2022-09-28T22:07:12.302Z,89.50
2022-09-28T22:13:07.746Z,89.60
2022-09-28T22:19:02.893Z,89.60
2022-09-28T22:21:31.821Z,89.50
2022-09-28T22:27:20.211Z,89.60
2022-09-28T22:33:08.763Z,89.80
2022-09-28T22:38:57.774Z,89.50
2022-09-28T22:41:24.950Z,89.90
2022-09-28T22:43:52.466Z,89.70
2022-09-28T22:49:47.826Z,89.90
2022-09-28T22:55:58.554Z,89.90
2022-09-28T23:01:53.831Z,90.10
2022-09-28T23:07:48.899Z,89.80
2022-09-28T23:13:48.159Z,89.90
2022-09-28T23:16:15.068Z,90.20
2022-09-28T23:19:17.490Z,90.10
2022-09-28T23:21:44.136Z,90.10
2022-09-28T23:24:10.822Z,90.30
2022-09-28T23:26:37.445Z,90.30
2022-09-28T23:32:57.309Z,90.00
2022-09-28T23:35:23.851Z,90.30
2022-09-28T23:37:51.688Z,90.30
2022-09-28T23:40:18.538Z,90.30
2022-09-28T23:42:45.134Z,90.20
2022-09-28T23:45:19.496Z,90.30
2022-09-28T23:47:46.150Z,90.20
2022-09-28T23:50:28.280Z,90.40
2022-09-28T23:52:55.316Z,90.40
2022-09-28T23:55:22.086Z,90.30
2022-09-28T23:57:48.691Z,90.40
